Time;durP1;ratioP1;P1;durP2;ratioP2;P2;SDS_P1;SDS_P2;PMS_P1;PMS_P2;Temp;Humidity;BMP_temperature;BMP_pressure;BME280_temperature;BME280_humidity;BME280_pressure;Samples;Min_cycle;Max_cycle;Signal;HPM_P1;HPM_P2
2021/12/14 00:00:27;;;;;;;11.57;6.67;;;13.00;60.20;;;;;;5079816;28;20542;-88
2021/12/14 00:02:55;;;;;;;10.37;6.17;;;13.00;60.10;;;;;;5049680;28;20500;-89
2021/12/14 00:05:26;;;;;;;12.03;6.20;;;13.00;60.10;;;;;;5045412;28;20487;-89
2021/12/14 00:07:56;;;;;;;7.47;4.10;;;13.00;60.00;;;;;;5047011;28;20544;-90
2021/12/14 00:13:26;;;;;;;7.60;4.90;;;12.90;59.90;;;;;;5065099;28;22435;-88
2021/12/14 00:15:56;;;;;;;9.77;5.33;;;13.00;60.10;;;;;;5080339;28;20551;-87
2021/12/14 00:18:24;;;;;;;8.37;5.80;;;12.70;59.90;;;;;;5062769;28;20557;-90
2021/12/14 00:20:56;;;;;;;10.50;5.67;;;12.70;60.40;;;;;;5059726;28;20569;-89
2021/12/14 00:26:12;;;;;;;9.27;4.43;;;12.80;60.50;;;;;;5079818;28;20827;-88
2021/12/14 00:28:40;;;;;;;11.53;6.03;;;12.80;60.40;;;;;;5064194;28;20457;-88
2021/12/14 00:31:14;;;;;;;10.83;5.50;;;12.90;60.40;;;;;;5078639;28;20459;-87
2021/12/14 00:33:43;;;;;;;9.73;6.07;;;12.90;60.10;;;;;;5059672;28;20973;-85
2021/12/14 00:36:13;;;;;;;10.13;5.30;;;12.90;60.10;;;;;;5044416;28;20445;-88
2021/12/14 00:38:44;;;;;;;10.30;4.60;;;12.90;60.10;;;;;;5061910;28;20955;-88
2021/12/14 00:41:14;;;;;;;8.20;4.40;;;12.90;60.00;;;;;;5064132;28;20539;-87
2021/12/14 00:43:41;;;;;;;9.40;4.17;;;12.90;60.00;;;;;;5035872;28;20552;-86
2021/12/14 00:46:10;;;;;;;5.27;4.20;;;12.80;60.00;;;;;;5052659;28;20456;-88
2021/12/14 00:48:39;;;;;;;8.33;4.30;;;12.90;59.90;;;;;;5041290;28;20472;-87
2021/12/14 00:51:07;;;;;;;8.13;4.20;;;12.80;59.90;;;;;;5058082;28;20551;-88
2021/12/14 00:53:35;;;;;;;13.77;4.90;;;12.60;59.90;;;;;;5078083;28;20559;-88
2021/12/14 00:56:06;;;;;;;11.60;6.27;;;12.50;60.60;;;;;;5052442;28;20456;-89
2021/12/14 00:58:34;;;;;;;8.63;5.33;;;12.60;61.10;;;;;;5045514;28;20456;-88
2021/12/14 01:01:04;;;;;;;9.43;4.53;;;12.60;61.20;;;;;;5051610;28;20463;-89
2021/12/14 01:03:36;;;;;;;12.87;5.10;;;12.60;61.00;;;;;;5046993;28;20510;-87
2021/12/14 01:06:09;;;;;;;9.80;4.60;;;12.60;60.80;;;;;;5045616;28;20452;-89
2021/12/14 01:08:40;;;;;;;6.33;4.40;;;12.70;60.80;;;;;;5061154;28;20978;-88
2021/12/14 01:11:13;;;;;;;8.83;4.40;;;12.60;60.80;;;;;;5076990;28;20485;-88
2021/12/14 01:13:45;;;;;;;8.53;4.10;;;12.60;60.60;;;;;;5050753;28;20443;-89
2021/12/14 01:16:18;;;;;;;8.90;4.17;;;12.40;60.70;;;;;;5064163;28;20449;-88
2021/12/14 01:19:00;;;;;;;4.77;3.47;;;12.40;60.80;;;;;;5062871;28;20568;-88
2021/12/14 01:21:44;;;;;;;4.93;3.03;;;12.50;60.60;;;;;;5052255;28;20529;-89
2021/12/14 01:24:23;;;;;;;7.87;4.10;;;12.60;60.50;;;;;;5058918;28;20538;-87
2021/12/14 01:26:52;;;;;;;4.43;2.97;;;12.60;60.20;;;;;;5046317;28;20701;-87
2021/12/14 01:29:19;;;;;;;7.50;4.00;;;12.50;60.00;;;;;;5059526;28;21087;-87
2021/12/14 01:31:49;;;;;;;4.73;3.33;;;12.40;60.20;;;;;;5044946;28;20536;-88
2021/12/14 01:34:22;;;;;;;4.90;2.90;;;12.40;60.40;;;;;;5046656;28;20460;-88
2021/12/14 01:36:54;;;;;;;6.03;2.70;;;12.30;60.10;;;;;;5045913;28;20468;-88
2021/12/14 01:39:45;;;;;;;2.97;2.67;;;12.20;60.50;;;;;;5075888;28;20472;-86
2021/12/14 01:42:17;;;;;;;6.10;3.50;;;12.30;60.60;;;;;;5044710;28;20460;-89
2021/12/14 01:44:47;;;;;;;10.60;3.30;;;12.20;60.50;;;;;;5043104;28;20472;-87
2021/12/14 01:47:19;;;;;;;4.33;2.80;;;12.20;60.70;;;;;;5057570;28;20964;-88
2021/12/14 01:50:14;;;;;;;6.10;2.63;;;12.20;60.60;;;;;;5051065;28;20473;-87
2021/12/14 01:52:57;;;;;;;5.90;3.70;;;12.30;60.50;;;;;;5038429;28;20443;-87
2021/12/14 01:55:27;;;;;;;4.80;2.57;;;12.30;60.30;;;;;;5041755;28;20452;-88
2021/12/14 01:57:55;;;;;;;3.03;2.30;;;12.30;60.00;;;;;;5060519;28;20448;-88
2021/12/14 02:00:27;;;;;;;3.70;2.13;;;12.30;60.10;;;;;;5032653;28;20467;-88
2021/12/14 02:02:54;;;;;;;4.57;2.57;;;12.40;60.20;;;;;;5052634;28;20445;-88
2021/12/14 02:05:26;;;;;;;4.93;2.80;;;12.40;60.20;;;;;;5045737;28;20467;-88
2021/12/14 02:07:54;;;;;;;3.63;2.77;;;12.40;60.20;;;;;;5031934;28;20970;-87
2021/12/14 02:10:25;;;;;;;6.90;4.53;;;12.50;60.40;;;;;;5049486;28;20460;-87
2021/12/14 02:12:53;;;;;;;5.03;3.47;;;12.50;60.40;;;;;;5059631;28;20467;-88
2021/12/14 02:15:24;;;;;;;6.07;4.00;;;12.60;60.40;;;;;;5073812;28;20494;-85
2021/12/14 02:17:54;;;;;;;6.33;4.23;;;12.60;60.20;;;;;;5047708;28;20459;-88
2021/12/14 02:20:26;;;;;;;8.57;4.37;;;12.60;60.10;;;;;;5027443;28;20483;-88
2021/12/14 02:22:55;;;;;;;6.57;3.93;;;12.60;60.00;;;;;;5050398;28;20940;-87
2021/12/14 02:25:23;;;;;;;7.00;4.03;;;12.60;59.90;;;;;;5061123;28;20474;-89
2021/12/14 02:27:52;;;;;;;6.77;3.40;;;12.60;59.90;;;;;;5034367;28;20966;-87
2021/12/14 02:30:29;;;;;;;5.53;4.20;;;12.60;59.90;;;;;;5059123;28;20537;-88
2021/12/14 02:32:58;;;;;;;4.83;3.00;;;12.60;60.10;;;;;;5051955;28;20807;-88
2021/12/14 02:35:28;;;;;;;3.90;3.10;;;12.60;60.10;;;;;;5036936;28;20974;-86
2021/12/14 02:38:01;;;;;;;17.73;5.07;;;12.60;60.10;;;;;;5040951;28;20550;-88
2021/12/14 02:40:53;;;;;;;12.20;4.60;;;12.70;60.10;;;;;;5031629;28;20487;-88
2021/12/14 02:43:25;;;;;;;5.60;4.00;;;12.70;59.90;;;;;;5058971;28;20447;-88
2021/12/14 02:45:54;;;;;;;6.17;4.40;;;12.70;59.80;;;;;;5045863;28;20446;-87
2021/12/14 02:48:24;;;;;;;7.60;4.60;;;12.70;60.10;;;;;;5064380;28;20449;-87
2021/12/14 02:50:51;;;;;;;8.20;4.27;;;12.70;59.90;;;;;;5033882;28;20455;-87
2021/12/14 02:53:20;;;;;;;3.60;3.03;;;12.60;59.70;;;;;;5057410;28;20696;-88
2021/12/14 02:55:47;;;;;;;3.60;2.77;;;12.50;59.60;;;;;;5046841;28;20456;-89
2021/12/14 02:58:14;;;;;;;5.90;3.33;;;12.40;59.70;;;;;;5058794;28;20817;-90
2021/12/14 03:00:46;;;;;;;4.90;2.97;;;12.40;60.00;;;;;;5032678;28;20470;-87
2021/12/14 03:03:15;;;;;;;7.43;3.00;;;12.40;60.00;;;;;;5066344;28;20551;-88
2021/12/14 03:05:44;;;;;;;3.87;2.50;;;12.50;60.10;;;;;;5064680;28;20559;-88
2021/12/14 03:08:17;;;;;;;3.87;3.30;;;12.50;59.90;;;;;;5060254;28;20598;-88
2021/12/14 03:10:59;;;;;;;5.97;3.00;;;12.50;59.90;;;;;;5076347;28;20505;-88
2021/12/14 03:13:32;;;;;;;4.70;3.17;;;12.50;60.20;;;;;;5049998;28;20483;-87
2021/12/14 03:16:02;;;;;;;9.47;5.43;;;12.50;60.20;;;;;;5079518;28;20822;-87
2021/12/14 03:18:32;;;;;;;7.93;4.30;;;12.50;60.10;;;;;;5031027;28;20967;-87
2021/12/14 03:21:03;;;;;;;9.40;4.97;;;12.50;60.20;;;;;;5054842;28;21036;-89
2021/12/14 03:23:32;;;;;;;6.57;3.70;;;12.40;60.40;;;;;;5044557;28;20462;-88
2021/12/14 03:26:03;;;;;;;7.03;3.80;;;12.40;60.50;;;;;;5049049;28;20937;-88
2021/12/14 03:28:31;;;;;;;9.60;5.07;;;12.40;60.70;;;;;;5048776;28;20991;-88
2021/12/14 03:31:06;;;;;;;6.50;4.67;;;12.40;60.60;;;;;;5077517;28;20649;-87
2021/12/14 03:33:40;;;;;;;6.70;4.77;;;12.50;60.40;;;;;;5061269;28;20585;-88
2021/12/14 03:36:10;;;;;;;8.57;5.00;;;12.50;60.10;;;;;;5064741;28;21033;-88
2021/12/14 03:38:41;;;;;;;8.97;5.77;;;12.50;60.10;;;;;;5042833;28;20540;-88
2021/12/14 03:41:14;;;;;;;5.63;3.67;;;12.50;59.90;;;;;;5067524;28;20889;-85
2021/12/14 03:43:44;;;;;;;7.40;4.10;;;12.20;60.50;;;;;;5060629;28;20455;-88
2021/12/14 03:46:14;;;;;;;3.60;3.00;;;12.20;60.50;;;;;;5065150;28;20456;-87
2021/12/14 03:48:42;;;;;;;3.40;2.47;;;12.10;60.10;;;;;;5052993;28;20871;-88
2021/12/14 03:51:10;;;;;;;2.70;2.43;;;11.90;60.50;;;;;;5052696;28;20452;-88
2021/12/14 03:53:38;;;;;;;2.17;1.97;;;11.80;60.90;;;;;;5037127;28;20873;-88
2021/12/14 03:56:08;;;;;;;2.53;2.20;;;11.70;61.20;;;;;;5062193;28;20456;-88
2021/12/14 03:58:39;;;;;;;2.47;2.27;;;11.60;61.80;;;;;;5034161;28;20959;-88
2021/12/14 04:01:11;;;;;;;3.90;2.80;;;11.80;61.50;;;;;;5068025;28;20714;-88
2021/12/14 04:03:46;;;;;;;2.37;2.17;;;11.90;61.20;;;;;;5034187;28;20857;-88
2021/12/14 04:06:19;;;;;;;2.40;2.00;;;12.00;61.00;;;;;;5062216;28;20492;-89
2021/12/14 04:08:47;;;;;;;2.33;2.00;;;11.90;60.70;;;;;;5060548;28;21000;-87
2021/12/14 04:11:17;;;;;;;2.87;2.17;;;11.90;60.90;;;;;;5052738;28;20759;-87
2021/12/14 04:13:49;;;;;;;3.30;3.00;;;11.50;61.20;;;;;;5044642;28;20469;-88
2021/12/14 04:16:25;;;;;;;3.40;2.33;;;11.20;63.00;;;;;;5033364;28;20495;-89
2021/12/14 04:18:56;;;;;;;2.80;2.00;;;11.30;62.80;;;;;;5063033;28;20485;-88
2021/12/14 04:21:25;;;;;;;2.73;2.03;;;11.40;62.30;;;;;;5030692;28;20453;-88
2021/12/14 04:23:53;;;;;;;5.07;3.37;;;11.20;62.40;;;;;;5048719;28;20449;-87
2021/12/14 04:26:23;;;;;;;6.20;3.40;;;10.90;63.50;;;;;;5050489;28;20462;-88
2021/12/14 04:28:55;;;;;;;3.60;2.80;;;11.10;63.40;;;;;;5043307;28;20837;-88
2021/12/14 04:31:24;;;;;;;3.83;2.70;;;11.30;62.80;;;;;;5050436;28;20484;-87
2021/12/14 04:33:55;;;;;;;3.93;2.70;;;11.50;62.50;;;;;;5046724;28;21030;-87
2021/12/14 04:36:27;;;;;;;2.13;1.93;;;11.70;61.80;;;;;;5044875;28;20445;-88
2021/12/14 04:39:00;;;;;;;3.80;2.43;;;11.70;61.80;;;;;;5068443;28;20478;-88
2021/12/14 04:52:56;;;;;;;6.47;3.60;;;11.80;61.20;;;;;;5049544;28;20982;-88
2021/12/14 04:55:23;;;;;;;6.33;3.87;;;11.70;61.50;;;;;;5049313;28;20456;-88
2021/12/14 04:57:50;;;;;;;7.30;4.00;;;11.90;61.60;;;;;;5063631;28;20480;-88
2021/12/14 05:00:23;;;;;;;5.83;5.00;;;12.00;61.30;;;;;;5042026;28;20471;-88
2021/12/14 05:03:01;;;;;;;5.20;3.70;;;12.10;60.90;;;;;;5045627;28;20793;-87
2021/12/14 05:05:39;;;;;;;6.13;5.30;;;12.20;60.60;;;;;;5049128;28;20477;-88
2021/12/14 05:10:57;;;;;;;6.53;4.63;;;12.00;60.50;;;;;;5061384;28;20791;-87
2021/12/14 05:13:26;;;;;;;5.50;4.83;;;12.10;60.50;;;;;;5049192;28;20559;-85
2021/12/14 05:15:55;;;;;;;7.17;4.83;;;12.20;60.40;;;;;;5061405;28;20494;-88
2021/12/14 05:18:24;;;;;;;6.13;4.47;;;12.20;60.40;;;;;;5023837;28;20813;-87
2021/12/14 05:20:52;;;;;;;16.57;7.50;;;12.30;60.30;;;;;;5034407;28;20465;-88
2021/12/14 05:23:22;;;;;;;13.30;7.47;;;12.30;59.90;;;;;;5065091;28;20828;-86
2021/12/14 05:25:50;;;;;;;18.57;7.97;;;12.40;59.90;;;;;;5057636;28;20896;-88
2021/12/14 05:28:20;;;;;;;11.40;7.03;;;12.40;60.50;;;;;;5051072;28;20555;-88
2021/12/14 05:30:50;;;;;;;13.87;8.20;;;12.50;59.70;;;;;;5067686;28;20843;-87
2021/12/14 05:33:28;;;;;;;9.40;5.53;;;12.40;59.50;;;;;;5047586;28;20539;-88
2021/12/14 05:36:01;;;;;;;9.27;5.43;;;12.30;59.50;;;;;;5045197;28;20450;-87
2021/12/14 05:38:44;;;;;;;8.80;5.50;;;12.30;59.40;;;;;;5052896;28;20440;-89
2021/12/14 05:44:26;;;;;;;6.73;4.90;;;12.10;59.80;;;;;;5048832;28;20452;-87
2021/12/14 05:46:57;;;;;;;8.33;4.33;;;12.00;59.90;;;;;;5034661;28;20879;-88
2021/12/14 05:49:38;;;;;;;8.80;4.83;;;12.00;60.00;;;;;;5043082;28;20467;-87
2021/12/14 05:52:10;;;;;;;8.67;5.33;;;12.00;59.90;;;;;;5046504;28;21044;-88
2021/12/14 05:54:38;;;;;;;12.97;7.10;;;11.90;60.30;;;;;;5046333;28;20468;-88
2021/12/14 05:57:08;;;;;;;13.30;7.70;;;11.90;60.40;;;;;;5061256;28;20458;-88
2021/12/14 05:59:36;;;;;;;17.93;9.33;;;12.00;60.80;;;;;;5033035;28;20842;-85
2021/12/14 06:02:08;;;;;;;14.43;6.57;;;11.90;60.50;;;;;;5056005;28;20464;-87
2021/12/14 06:04:40;;;;;;;11.97;6.30;;;11.70;60.70;;;;;;5030230;28;20483;-86
2021/12/14 06:07:08;;;;;;;12.97;5.87;;;11.70;61.00;;;;;;5066887;28;20558;-88
2021/12/14 06:09:39;;;;;;;11.03;6.77;;;11.60;61.20;;;;;;5050735;28;20476;-89
2021/12/14 06:12:17;;;;;;;8.70;5.83;;;11.60;61.10;;;;;;5058043;28;20451;-88
2021/12/14 06:14:52;;;;;;;13.30;8.20;;;11.70;61.10;;;;;;5053093;28;20974;-88
2021/12/14 06:17:23;;;;;;;14.17;7.57;;;11.90;61.10;;;;;;5054343;28;20486;-88
2021/12/14 06:19:55;;;;;;;18.73;8.53;;;12.00;60.80;;;;;;5046066;28;20559;-88
2021/12/14 06:22:23;;;;;;;14.10;7.67;;;12.10;60.40;;;;;;5050002;28;20540;-87
2021/12/14 06:24:53;;;;;;;9.50;7.13;;;12.20;60.00;;;;;;5049589;28;20466;-86
2021/12/14 06:27:25;;;;;;;9.27;5.60;;;12.20;60.00;;;;;;5045233;28;20807;-86
2021/12/14 06:29:55;;;;;;;9.77;7.17;;;12.30;60.00;;;;;;5058135;28;20530;-86
2021/12/14 06:32:26;;;;;;;10.73;7.30;;;12.30;59.80;;;;;;5050134;28;20542;-86
2021/12/14 06:34:57;;;;;;;11.70;7.57;;;12.30;59.60;;;;;;5046627;28;20493;-87
2021/12/14 06:38:09;;;;;;;9.73;6.60;;;12.30;59.60;;;;;;5048337;28;20848;-86
2021/12/14 06:40:40;;;;;;;8.70;6.53;;;12.30;59.60;;;;;;5042701;28;20572;-87
2021/12/14 06:43:10;;;;;;;9.63;6.27;;;12.20;59.70;;;;;;5046611;28;21055;-87
2021/12/14 06:45:43;;;;;;;6.17;5.13;;;12.10;59.90;;;;;;5053981;28;20895;-85
2021/12/14 06:48:16;;;;;;;11.00;7.13;;;12.20;60.00;;;;;;5054065;28;20617;-88
2021/12/14 06:50:46;;;;;;;13.73;9.47;;;12.00;60.00;;;;;;5058854;28;20875;-86
2021/12/14 06:53:29;;;;;;;10.67;7.83;;;12.10;60.10;;;;;;5035952;28;20451;-87
2021/12/14 06:56:35;;;;;;;11.53;8.00;;;12.20;60.00;;;;;;5051426;28;20444;-84
2021/12/14 06:59:21;;;;;;;12.17;9.00;;;12.20;59.90;;;;;;5043435;28;20467;-84
2021/12/14 07:02:09;;;;;;;12.23;9.50;;;12.10;60.10;;;;;;5049232;28;20466;-86
2021/12/14 07:04:49;;;;;;;14.00;9.97;;;12.20;60.10;;;;;;5053606;28;20455;-86
2021/12/14 07:07:22;;;;;;;12.53;9.57;;;12.20;59.80;;;;;;5029670;28;20545;-86
2021/12/14 07:09:54;;;;;;;12.57;9.07;;;12.20;59.90;;;;;;5044389;28;20486;-87
2021/12/14 07:12:24;;;;;;;16.40;10.30;;;12.20;59.90;;;;;;5077538;28;20456;-86
2021/12/14 07:15:11;;;;;;;18.73;11.23;;;12.30;59.90;;;;;;5069960;28;20512;-87
2021/12/14 07:17:44;;;;;;;19.50;11.73;;;12.20;59.60;;;;;;5048314;28;20539;-87
2021/12/14 07:20:27;;;;;;;20.33;11.93;;;11.90;60.50;;;;;;5050420;28;20486;-88
2021/12/14 07:23:00;;;;;;;15.40;9.23;;;12.00;60.50;;;;;;5061111;28;20455;-87
2021/12/14 07:25:30;;;;;;;16.93;9.37;;;12.00;60.70;;;;;;5033226;28;20506;-87
2021/12/14 07:27:59;;;;;;;13.53;8.40;;;12.00;61.00;;;;;;5037047;28;20464;-88
2021/12/14 07:30:32;;;;;;;13.63;9.83;;;12.00;61.00;;;;;;5049910;28;20515;-87
2021/12/14 07:33:03;;;;;;;11.87;7.47;;;12.10;60.80;;;;;;5080319;28;20470;-88
2021/12/14 07:35:38;;;;;;;11.00;6.23;;;12.20;60.70;;;;;;5055161;28;20448;-88
2021/12/14 07:38:27;;;;;;;8.80;6.43;;;12.20;60.50;;;;;;5072681;28;20452;-88
2021/12/14 07:40:59;;;;;;;18.97;10.87;;;11.80;60.30;;;;;;5067545;28;20470;-88
2021/12/14 07:43:29;;;;;;;13.17;9.27;;;11.60;61.90;;;;;;5082281;28;20451;-88
2021/12/14 07:45:58;;;;;;;36.73;17.10;;;11.70;62.10;;;;;;5054805;28;20479;-88
2021/12/14 07:48:40;;;;;;;11.77;7.80;;;11.50;61.30;;;;;;5084708;28;21002;-88
2021/12/14 07:51:07;;;;;;;11.93;6.50;;;11.50;62.10;;;;;;5085044;28;20514;-87
2021/12/14 07:53:40;;;;;;;13.40;7.53;;;11.70;61.90;;;;;;5066577;28;20428;-86
2021/12/14 07:56:08;;;;;;;19.10;10.63;;;11.70;61.60;;;;;;5082499;28;20449;-88
2021/12/14 07:58:37;;;;;;;19.60;11.00;;;11.80;61.30;;;;;;5053312;28;20458;-88
2021/12/14 08:01:07;;;;;;;13.73;7.80;;;11.80;61.30;;;;;;5046562;28;20978;-88
2021/12/14 08:03:35;;;;;;;18.53;7.80;;;11.80;61.40;;;;;;5060277;28;20532;-87
2021/12/14 08:06:06;;;;;;;14.73;7.90;;;11.90;61.50;;;;;;5048140;28;20503;-88
2021/12/14 08:08:42;;;;;;;13.83;7.23;;;11.90;61.20;;;;;;5044876;28;20461;-87
2021/12/14 08:11:46;;;;;;;16.93;8.70;;;11.80;60.70;;;;;;5028805;28;20464;-86
2021/12/14 08:14:24;;;;;;;13.10;7.63;;;11.90;61.20;;;;;;5053066;28;20460;-88
2021/12/14 08:16:55;;;;;;;15.73;8.73;;;12.10;61.00;;;;;;5046588;28;20459;-88
2021/12/14 08:19:31;;;;;;;17.47;8.57;;;12.10;60.40;;;;;;5060410;28;20469;-87
2021/12/14 08:22:01;;;;;;;19.63;11.03;;;11.90;60.80;;;;;;5048756;28;20458;-85
2021/12/14 08:24:29;;;;;;;27.33;13.03;;;11.90;61.20;;;;;;5027620;28;20465;-87
2021/12/14 08:26:59;;;;;;;13.97;7.67;;;12.10;61.00;;;;;;5030221;28;20473;-88
2021/12/14 08:29:28;;;;;;;15.50;8.77;;;12.00;60.90;;;;;;5047071;28;20472;-87
2021/12/14 08:31:58;;;;;;;17.70;9.43;;;12.00;60.90;;;;;;5045567;28;20495;-88
2021/12/14 08:34:28;;;;;;;17.90;7.57;;;12.10;60.90;;;;;;5064165;28;20452;-87
2021/12/14 08:37:02;;;;;;;10.97;6.73;;;12.10;61.00;;;;;;5044076;28;20449;-87
2021/12/14 08:39:33;;;;;;;14.53;7.03;;;11.90;61.00;;;;;;5061472;28;20475;-88
2021/12/14 08:42:11;;;;;;;13.70;6.83;;;11.90;61.80;;;;;;5045857;28;20510;-84
2021/12/14 08:44:41;;;;;;;17.47;8.17;;;12.00;61.70;;;;;;5033745;28;20437;-87
2021/12/14 08:47:14;;;;;;;17.63;7.67;;;12.00;61.70;;;;;;5031347;28;20460;-87
2021/12/14 08:49:43;;;;;;;17.13;7.70;;;12.00;61.70;;;;;;5030362;28;20457;-87
2021/12/14 08:52:12;;;;;;;13.53;7.40;;;12.10;62.00;;;;;;5011633;28;20475;-87
2021/12/14 08:54:41;;;;;;;20.00;9.63;;;12.10;61.40;;;;;;5064081;28;20456;-87
2021/12/14 08:57:13;;;;;;;18.27;8.83;;;12.20;61.20;;;;;;5027713;28;20456;-87
2021/12/14 08:59:43;;;;;;;14.10;5.80;;;12.20;61.20;;;;;;5033116;28;20467;-87
2021/12/14 09:02:13;;;;;;;13.77;6.30;;;12.10;61.20;;;;;;5031513;28;20462;-87
2021/12/14 09:04:45;;;;;;;15.50;8.40;;;12.10;61.20;;;;;;5046774;28;20480;-87
2021/12/14 09:07:15;;;;;;;15.70;6.93;;;12.20;61.20;;;;;;5051684;28;20468;-87
2021/12/14 09:09:45;;;;;;;15.23;7.00;;;12.30;60.90;;;;;;5021779;28;20984;-86
2021/12/14 09:12:16;;;;;;;18.77;7.33;;;12.30;60.70;;;;;;5044058;28;20464;-87
2021/12/14 09:14:45;;;;;;;14.50;6.27;;;12.30;60.70;;;;;;5043421;28;20519;-87
2021/12/14 09:17:14;;;;;;;27.90;7.80;;;12.40;60.70;;;;;;5046038;28;20451;-86
2021/12/14 09:19:44;;;;;;;12.63;6.23;;;12.30;60.80;;;;;;5065076;28;20521;-87
2021/12/14 09:22:16;;;;;;;17.87;8.17;;;12.30;61.60;;;;;;5043494;28;20518;-87
2021/12/14 09:24:45;;;;;;;12.57;6.70;;;12.40;60.70;;;;;;5035618;28;20456;-86
2021/12/14 09:27:17;;;;;;;13.73;7.03;;;12.50;61.40;;;;;;5044948;28;20834;-85
2021/12/14 09:29:45;;;;;;;12.27;6.63;;;12.50;60.30;;;;;;5027020;28;20919;-85
2021/12/14 09:32:17;;;;;;;15.30;7.70;;;12.40;60.20;;;;;;5029043;28;20963;-86
2021/12/14 09:34:45;;;;;;;15.70;6.60;;;12.30;60.70;;;;;;5042905;28;20479;-86
2021/12/14 09:37:13;;;;;;;12.80;6.60;;;12.30;60.80;;;;;;5059609;28;20500;-86
2021/12/14 09:39:46;;;;;;;11.67;6.73;;;12.40;60.60;;;;;;5045566;28;20851;-87
2021/12/14 09:42:15;;;;;;;13.97;7.90;;;12.50;60.60;;;;;;5058142;28;20490;-86
2021/12/14 09:44:43;;;;;;;15.80;7.17;;;12.60;60.40;;;;;;5030164;28;20552;-87
2021/12/14 09:47:14;;;;;;;21.10;10.30;;;12.60;60.20;;;;;;5027111;28;20488;-87
2021/12/14 09:49:42;;;;;;;19.40;10.83;;;12.60;60.10;;;;;;5034484;28;20481;-87
2021/12/14 09:52:12;;;;;;;18.13;9.00;;;12.60;60.00;;;;;;5027382;28;20809;-87
2021/12/14 09:54:40;;;;;;;12.40;6.90;;;12.70;60.10;;;;;;5061591;28;20453;-87
2021/12/14 09:57:13;;;;;;;14.67;7.63;;;12.70;59.70;;;;;;5016228;28;20546;-85
2021/12/14 09:59:41;;;;;;;12.93;7.27;;;12.60;60.00;;;;;;5048949;28;20484;-87
2021/12/14 10:02:12;;;;;;;13.20;6.63;;;12.60;60.30;;;;;;5048921;28;20952;-85
2021/12/14 10:04:42;;;;;;;16.33;7.17;;;12.70;60.20;;;;;;5027054;28;20817;-87
2021/12/14 10:07:10;;;;;;;13.73;8.70;;;12.70;60.10;;;;;;5044871;28;20488;-87
2021/12/14 10:09:43;;;;;;;10.77;5.90;;;12.70;60.90;;;;;;5060930;28;21000;-87
2021/12/14 10:12:49;;;;;;;12.23;6.77;;;12.50;60.00;;;;;;5015336;28;20448;-84
2021/12/14 10:15:21;;;;;;;13.47;6.77;;;12.60;60.30;;;;;;5037380;28;20453;-88
2021/12/14 10:17:49;;;;;;;12.27;6.93;;;12.60;60.30;;;;;;5059348;28;20450;-87
2021/12/14 10:20:20;;;;;;;13.30;6.23;;;12.60;60.30;;;;;;5056145;28;20548;-85
2021/12/14 10:22:51;;;;;;;12.57;6.93;;;12.70;60.10;;;;;;5046730;28;20460;-87
2021/12/14 10:25:20;;;;;;;14.03;7.43;;;12.80;60.10;;;;;;5061778;28;20523;-87
2021/12/14 10:27:50;;;;;;;10.30;6.37;;;12.90;60.00;;;;;;5032942;28;20484;-87
2021/12/14 10:30:21;;;;;;;14.73;8.13;;;12.80;59.80;;;;;;5036438;28;20582;-87
2021/12/14 10:32:49;;;;;;;13.83;7.57;;;12.90;59.90;;;;;;5013675;28;20455;-86
2021/12/14 10:35:23;;;;;;;13.67;7.47;;;13.00;59.80;;;;;;5016807;28;20949;-87
2021/12/14 10:37:56;;;;;;;14.70;7.93;;;13.00;59.50;;;;;;5024603;28;20437;-87
2021/12/14 10:43:16;;;;;;;13.87;7.00;;;13.10;59.40;;;;;;5023958;28;20999;-88
2021/12/14 10:45:49;;;;;;;15.30;7.90;;;13.10;59.40;;;;;;5013940;28;20481;-87
2021/12/14 10:48:18;;;;;;;15.40;7.80;;;13.00;59.50;;;;;;5030305;28;20446;-87
2021/12/14 10:50:46;;;;;;;15.17;8.60;;;13.10;59.70;;;;;;5047820;28;20472;-87
2021/12/14 10:53:14;;;;;;;17.43;8.73;;;12.90;59.40;;;;;;5029148;28;20457;-87
2021/12/14 10:55:45;;;;;;;13.67;7.67;;;12.90;59.70;;;;;;5062979;28;20457;-85
2021/12/14 10:58:17;;;;;;;12.93;6.90;;;12.90;59.60;;;;;;5035464;28;20979;-86
2021/12/14 11:00:49;;;;;;;14.30;7.30;;;12.90;59.60;;;;;;5019894;28;20468;-87
2021/12/14 11:03:22;;;;;;;10.27;6.60;;;12.90;59.60;;;;;;5050712;28;20475;-87
2021/12/14 11:05:53;;;;;;;13.20;7.23;;;13.10;59.70;;;;;;5056839;28;20540;-87
2021/12/14 11:08:45;;;;;;;11.37;8.07;;;13.00;59.40;;;;;;5015308;28;20493;-86
2021/12/14 11:11:14;;;;;;;11.57;7.90;;;12.90;59.70;;;;;;5058759;28;20452;-87
2021/12/14 11:13:45;;;;;;;12.10;7.07;;;12.80;60.00;;;;;;5064331;28;20440;-86
2021/12/14 11:16:21;;;;;;;12.77;7.07;;;12.90;60.10;;;;;;5039522;28;20516;-85
2021/12/14 11:18:49;;;;;;;14.27;8.27;;;12.80;59.90;;;;;;5067009;28;20802;-86
2021/12/14 11:21:22;;;;;;;10.40;7.93;;;12.80;60.00;;;;;;5066505;28;20476;-86
2021/12/14 11:23:51;;;;;;;17.33;8.27;;;12.70;60.50;;;;;;5071593;28;20885;-88
2021/12/14 11:26:23;;;;;;;18.07;8.67;;;12.80;60.00;;;;;;5048553;28;20857;-87
2021/12/14 11:28:54;;;;;;;11.83;8.13;;;12.90;60.10;;;;;;5065826;28;20482;-86
2021/12/14 11:31:24;;;;;;;15.00;9.30;;;12.90;59.90;;;;;;5008812;28;20477;-84
2021/12/14 11:33:53;;;;;;;14.40;8.47;;;12.90;59.80;;;;;;5023903;28;20460;-87
2021/12/14 11:36:25;;;;;;;11.50;8.40;;;13.00;59.90;;;;;;5054748;28;20445;-85
2021/12/14 11:39:00;;;;;;;13.57;8.80;;;12.90;59.70;;;;;;5030479;28;20530;-87
2021/12/14 11:41:39;;;;;;;16.83;8.93;;;12.90;59.70;;;;;;5048700;28;20470;-87
2021/12/14 11:44:18;;;;;;;18.13;8.80;;;13.00;59.70;;;;;;5028215;28;20999;-87
2021/12/14 11:46:59;;;;;;;12.50;8.17;;;13.00;59.70;;;;;;5064026;28;20563;-87
2021/12/14 11:49:43;;;;;;;15.53;8.50;;;13.00;59.70;;;;;;5040238;28;20480;-88
2021/12/14 11:52:11;;;;;;;17.57;12.17;;;13.00;59.60;;;;;;5046301;28;20457;-87
2021/12/14 11:54:44;;;;;;;16.07;9.63;;;13.00;59.60;;;;;;5036523;28;20463;-88
2021/12/14 11:57:12;;;;;;;18.83;9.60;;;13.00;59.70;;;;;;5060993;28;20445;-87
2021/12/14 11:59:41;;;;;;;16.33;10.43;;;13.00;59.70;;;;;;5049293;28;20897;-86
2021/12/14 12:02:08;;;;;;;20.03;10.97;;;13.00;59.70;;;;;;5041796;28;20468;-87
2021/12/14 12:04:42;;;;;;;17.67;9.30;;;13.00;59.60;;;;;;5043567;28;20695;-85
2021/12/14 12:10:03;;;;;;;18.17;10.40;;;13.00;59.70;;;;;;5045985;28;20475;-87
2021/12/14 12:12:33;;;;;;;18.37;11.33;;;13.10;59.80;;;;;;5066931;28;20461;-87
2021/12/14 12:15:08;;;;;;;16.03;10.23;;;13.10;59.80;;;;;;5049739;28;20436;-87
2021/12/14 12:17:38;;;;;;;18.07;10.40;;;13.00;59.80;;;;;;5042502;28;20588;-87
2021/12/14 12:20:19;;;;;;;23.40;12.10;;;13.00;60.00;;;;;;5027941;28;20480;-87
2021/12/14 12:22:48;;;;;;;20.17;11.00;;;13.00;60.10;;;;;;5068635;28;20462;-87
2021/12/14 12:25:19;;;;;;;20.53;10.97;;;12.90;60.10;;;;;;5070202;28;20525;-87
2021/12/14 12:27:49;;;;;;;17.57;10.70;;;13.10;60.30;;;;;;5029165;28;20472;-87
2021/12/14 12:30:33;;;;;;;19.50;11.80;;;13.10;60.20;;;;;;5044263;28;20893;-86
2021/12/14 12:33:05;;;;;;;24.23;11.83;;;13.10;59.80;;;;;;5063754;28;20453;-87
2021/12/14 12:35:36;;;;;;;18.40;11.10;;;13.10;59.90;;;;;;5047043;28;20449;-86
2021/12/14 12:38:20;;;;;;;17.90;10.97;;;13.10;60.00;;;;;;5029750;28;20503;-87
2021/12/14 12:40:52;;;;;;;19.70;11.10;;;13.10;59.70;;;;;;5045585;28;20823;-87
2021/12/14 12:43:26;;;;;;;20.47;12.10;;;13.20;59.70;;;;;;5044586;28;20445;-86
2021/12/14 12:46:05;;;;;;;21.13;11.07;;;13.10;59.80;;;;;;5045098;28;21077;-87
2021/12/14 12:48:44;;;;;;;20.20;12.63;;;13.00;59.90;;;;;;5046794;28;20524;-84
2021/12/14 12:51:32;;;;;;;19.17;11.67;;;13.00;59.90;;;;;;5042181;28;20465;-87
2021/12/14 12:54:11;;;;;;;26.13;13.00;;;13.00;59.60;;;;;;5025408;28;20512;-86
2021/12/14 12:56:51;;;;;;;24.43;13.97;;;13.00;59.80;;;;;;5047520;28;20944;-86
2021/12/14 12:59:38;;;;;;;26.47;15.60;;;13.00;59.90;;;;;;5018827;28;21043;-87
2021/12/14 13:02:17;;;;;;;22.03;12.60;;;12.90;60.10;;;;;;5046092;28;20461;-86
2021/12/14 13:04:48;;;;;;;19.97;12.47;;;12.90;60.00;;;;;;5043287;28;20526;-85
2021/12/14 13:07:16;;;;;;;23.50;12.90;;;12.80;60.10;;;;;;4992822;28;21012;-86
2021/12/14 13:10:01;;;;;;;22.27;13.67;;;12.90;60.20;;;;;;5023882;28;20512;-86
2021/12/14 13:12:39;;;;;;;21.40;12.73;;;12.90;59.90;;;;;;5039973;28;20568;-86
2021/12/14 13:15:31;;;;;;;26.47;14.73;;;13.00;59.90;;;;;;5026508;28;20994;-86
2021/12/14 13:18:29;;;;;;;18.17;11.53;;;13.00;59.80;;;;;;5025405;28;20953;-86
2021/12/14 13:21:00;;;;;;;22.33;12.90;;;13.10;59.70;;;;;;5006285;28;20508;-86
2021/12/14 13:24:00;;;;;;;23.43;12.20;;;13.10;59.50;;;;;;5098882;27;20572;-86
2021/12/14 13:26:32;;;;;;;21.03;11.57;;;13.00;59.40;;;;;;5113732;28;20458;-85
2021/12/14 13:29:05;;;;;;;21.13;12.43;;;13.10;59.60;;;;;;5098106;28;20474;-84
2021/12/14 13:31:35;;;;;;;19.83;10.83;;;13.00;59.60;;;;;;5107440;28;20828;-86
2021/12/14 13:34:06;;;;;;;15.57;11.10;;;13.00;59.50;;;;;;5092099;28;20478;-87